createdAt,value
2022-12-18T00:15:00.834Z,10290.90965
2022-12-18T00:30:03.069Z,9982.36387
2022-12-18T00:45:10.707Z,9528.62007
2022-12-18T01:00:14.783Z,9143.78082
2022-12-18T01:15:17.113Z,8843.75052
2022-12-18T01:30:19.266Z,8492.12354
2022-12-18T01:45:21.548Z,8056.94
2022-12-18T02:00:23.946Z,7877.52311
2022-12-18T02:15:26.139Z,8335.78843
2022-12-18T02:30:28.389Z,8422.61956
2022-12-18T02:45:30.796Z,9034.31816
2022-12-18T03:00:33.018Z,9143.78082
2022-12-18T03:15:35.351Z,9417.63781
2022-12-18T03:30:37.627Z,9991.17443
2022-12-18T03:45:39.890Z,10385.32167
2022-12-18T04:00:42.118Z,11527.49552
2022-12-18T04:15:44.374Z,12172.04365
2022-12-18T04:30:46.669Z,12535.99179
2022-12-18T04:45:49.332Z,12535.99179
2022-12-18T05:00:51.551Z,12535.99179
2022-12-18T05:15:53.767Z,12535.99179
2022-12-18T05:30:56.078Z,12535.99179
2022-12-18T05:45:58.399Z,12535.99179
2022-12-18T06:01:00.595Z,12535.99179
2022-12-18T06:16:03.054Z,12535.99179
2022-12-18T06:31:05.376Z,12535.99179
2022-12-18T06:46:07.708Z,12535.99179
2022-12-18T07:01:10.256Z,12535.99179
2022-12-18T07:16:18.336Z,12535.99179
2022-12-18T07:31:24.969Z,12535.99179
2022-12-18T07:46:27.225Z,12535.99179
2022-12-18T08:01:29.604Z,12535.99179
2022-12-18T08:16:31.923Z,12535.99179
2022-12-18T08:31:34.290Z,12535.99179
2022-12-18T08:46:36.655Z,12535.99179
2022-12-18T09:01:39.034Z,12535.99179
2022-12-18T09:16:41.385Z,12535.99179
2022-12-18T09:31:43.687Z,12535.99179
2022-12-18T09:46:45.943Z,12535.99179
2022-12-18T10:01:48.322Z,12535.99179
2022-12-18T10:16:50.574Z,12535.99179
2022-12-18T10:31:52.770Z,12535.99179
2022-12-18T10:46:55.040Z,12535.99179
2022-12-18T11:01:57.459Z,12535.99179
2022-12-18T11:17:25.251Z,12535.99179
2022-12-18T11:32:28.645Z,12535.99179
2022-12-18T11:47:30.850Z,12535.99179
2022-12-18T12:02:33.282Z,12535.99179
2022-12-18T12:17:35.584Z,12535.99179
2022-12-18T12:32:38.236Z,12535.99179
2022-12-18T12:47:40.444Z,12535.99179
2022-12-18T13:02:43.104Z,12535.99179
2022-12-18T13:17:45.628Z,12535.99179
2022-12-18T13:32:48.338Z,12535.99179
2022-12-18T13:47:50.844Z,12535.99179
2022-12-18T14:02:53.314Z,12535.99179
2022-12-18T14:17:55.586Z,12535.99179
2022-12-18T14:32:57.807Z,12535.99179
2022-12-18T14:48:00.179Z,12535.99179
2022-12-18T15:03:02.538Z,12535.99179
2022-12-18T15:18:05.134Z,12535.99179
2022-12-18T15:33:07.323Z,12535.99179
2022-12-18T15:48:09.499Z,12385.121
2022-12-18T16:03:11.902Z,11903.26035
2022-12-18T16:18:14.187Z,12224.62267
2022-12-18T16:33:16.403Z,12535.99179
2022-12-18T16:48:18.598Z,12094.01773
2022-12-18T17:03:20.954Z,11130.77739
2022-12-18T17:18:23.209Z,10375.80258
2022-12-18T17:33:25.440Z,9642.24927
2022-12-18T17:48:27.678Z,8536.95376
2022-12-18T18:03:30.206Z,8991.26343
2022-12-18T18:18:32.587Z,9417.63781
2022-12-18T18:33:34.934Z,9852.04581
2022-12-18T18:48:37.182Z,10290.90965
2022-12-18T19:03:40.526Z,10669.1806
2022-12-18T19:18:43.329Z,11054.68809
2022-12-18T19:33:46.031Z,10189.01946
2022-12-18T19:48:48.300Z,9843.47881
2022-12-18T20:03:52.597Z,9099.67898
2022-12-18T20:18:57.773Z,8628.0493
2022-12-18T20:34:02.726Z,8348.0831
2022-12-18T20:49:07.252Z,7721.69217
2022-12-18T21:04:09.502Z,7496.68923
2022-12-18T21:19:11.893Z,7753.42515
2022-12-18T21:34:14.382Z,8654.43477
2022-12-18T21:49:16.612Z,8354.24405
2022-12-18T22:04:18.884Z,8582.2598
2022-12-18T22:19:21.437Z,8991.26343
2022-12-18T22:34:23.648Z,8823.07145
2022-12-18T22:49:25.886Z,9938.54313
2022-12-18T23:04:28.072Z,8549.84946
2022-12-18T23:19:34.364Z,7971.83149
2022-12-18T23:34:36.582Z,8608.36553
2022-12-18T23:49:38.784Z,8422.61956
